createdAt,value
2023-05-12T00:00:51.117Z,7.70
2023-05-12T00:11:16.792Z,9.00
2023-05-12T00:21:43.412Z,8.70
2023-05-12T00:32:09.688Z,8.40
2023-05-12T00:42:37.186Z,9.00
2023-05-12T00:53:03.593Z,6.40
2023-05-12T01:03:31.083Z,6.50
2023-05-12T01:24:27.033Z,8.20
2023-05-12T01:34:53.344Z,8.00
2023-05-12T01:45:19.710Z,8.50
2023-05-12T01:55:45.753Z,7.10
2023-05-12T02:06:11.534Z,9.10
2023-05-12T02:16:37.795Z,10.60
2023-05-12T02:27:03.912Z,9.60
2023-05-12T02:37:30.004Z,8.80
2023-05-12T02:47:55.571Z,9.50
2023-05-12T02:58:21.625Z,7.20
2023-05-12T03:08:47.815Z,10.00
2023-05-12T03:19:13.884Z,10.90
2023-05-12T03:29:50.307Z,7.10
2023-05-12T03:40:19.109Z,8.80
2023-05-12T03:50:44.599Z,7.20
2023-05-12T04:01:10.840Z,10.20
2023-05-12T04:11:37.098Z,10.30
2023-05-12T04:22:02.678Z,11.00
2023-05-12T04:32:28.627Z,8.80
2023-05-12T04:42:54.419Z,7.70
2023-05-12T04:53:20.257Z,10.80
2023-05-12T05:03:46.442Z,8.10
2023-05-12T05:14:12.588Z,8.40
2023-05-12T05:24:38.822Z,10.20
2023-05-12T05:35:04.495Z,11.10
2023-05-12T05:45:30.610Z,8.80
2023-05-12T05:55:55.768Z,7.20
2023-05-12T06:06:21.346Z,10.50
2023-05-12T06:16:47.686Z,8.90
2023-05-12T06:27:14.206Z,8.20
2023-05-12T06:37:40.173Z,8.60
2023-05-12T06:48:07.058Z,7.00
2023-05-12T06:58:33.023Z,8.30
2023-05-12T07:08:58.940Z,13.90
2023-05-12T07:19:24.865Z,9.90
2023-05-12T07:29:50.804Z,8.60
2023-05-12T07:40:16.968Z,7.80
2023-05-12T07:50:43.146Z,5.80
2023-05-12T08:01:10.374Z,5.30
2023-05-12T08:11:35.649Z,4.90
2023-05-12T08:22:02.160Z,5.40
2023-05-12T08:32:28.661Z,5.00
2023-05-12T08:43:06.051Z,4.50
2023-05-12T08:53:35.488Z,6.60
2023-05-12T09:04:01.720Z,4.80
2023-05-12T09:14:30.487Z,3.80
2023-05-12T09:24:56.123Z,5.40
2023-05-12T09:35:22.036Z,7.10
2023-05-12T09:45:50.730Z,3.60
2023-05-12T09:56:17.743Z,4.40
2023-05-12T10:06:45.702Z,2.90
2023-05-12T10:17:13.548Z,3.70
2023-05-12T10:27:40.078Z,4.00
2023-05-12T10:48:33.596Z,3.10
2023-05-12T10:59:20.277Z,2.90
2023-05-12T11:09:57.400Z,3.90
2023-05-12T11:20:29.464Z,4.10
2023-05-12T11:31:05.954Z,3.50
2023-05-12T11:41:31.607Z,2.70
2023-05-12T11:51:59.382Z,3.40
2023-05-12T12:02:25.491Z,2.70
2023-05-12T12:12:51.870Z,4.70
2023-05-12T12:23:17.772Z,4.50
2023-05-12T12:33:44.440Z,3.80
2023-05-12T12:44:10.411Z,4.30
2023-05-12T12:54:36.255Z,5.00
2023-05-12T13:05:04.204Z,6.10
2023-05-12T13:15:32.495Z,4.90
2023-05-12T13:26:00.058Z,3.60
2023-05-12T13:36:25.727Z,3.00
2023-05-12T13:46:51.856Z,4.50
2023-05-12T13:57:17.594Z,4.80
2023-05-12T14:07:43.579Z,7.90
2023-05-12T14:18:09.650Z,3.60
2023-05-12T14:28:35.794Z,4.90
2023-05-12T14:39:01.903Z,3.60
2023-05-12T14:49:27.787Z,5.50
2023-05-12T14:59:59.043Z,6.30
2023-05-12T15:10:25.061Z,5.10
2023-05-12T15:20:51.879Z,4.60
2023-05-12T15:31:18.126Z,4.60
2023-05-12T15:41:44.434Z,5.70
2023-05-12T15:52:11.643Z,4.80
2023-05-12T16:02:37.700Z,5.40
2023-05-12T16:13:03.250Z,4.90
2023-05-12T16:23:29.029Z,4.60
2023-05-12T16:33:54.650Z,5.50
2023-05-12T16:44:20.845Z,2.90
2023-05-12T16:54:46.383Z,4.00
2023-05-12T17:05:12.740Z,6.00
2023-05-12T17:15:39.925Z,5.30
2023-05-12T17:26:05.994Z,4.00
2023-05-12T17:36:32.042Z,4.60
2023-05-12T17:46:57.859Z,3.00
2023-05-12T17:57:23.862Z,3.10
2023-05-12T18:07:50.277Z,5.20
2023-05-12T18:18:16.006Z,4.00
2023-05-12T18:28:42.007Z,4.20
2023-05-12T18:39:09.742Z,6.00
2023-05-12T18:59:59.279Z,5.30
2023-05-12T19:10:25.303Z,4.30
2023-05-12T19:20:51.368Z,4.20
2023-05-12T19:31:17.201Z,5.40
2023-05-12T19:41:43.098Z,6.30
2023-05-12T19:52:09.818Z,5.10
2023-05-12T20:02:35.167Z,5.60
2023-05-12T20:13:03.435Z,6.70
2023-05-12T20:23:29.302Z,5.80
2023-05-12T20:33:55.182Z,6.00
2023-05-12T20:44:21.298Z,5.10
2023-05-12T20:54:46.888Z,5.90
2023-05-12T21:05:12.856Z,5.50
2023-05-12T21:15:39.375Z,4.90
2023-05-12T21:26:05.322Z,7.60
2023-05-12T21:36:32.510Z,3.70
2023-05-12T21:46:58.773Z,7.10
2023-05-12T21:57:24.265Z,7.60
2023-05-12T22:07:49.967Z,8.70
2023-05-12T22:18:15.713Z,4.80
2023-05-12T22:28:41.362Z,5.70
2023-05-12T22:39:06.904Z,7.20
2023-05-12T22:49:32.777Z,10.70
2023-05-12T22:59:58.772Z,6.90
2023-05-12T23:10:24.541Z,7.70
2023-05-12T23:20:50.475Z,8.20
2023-05-12T23:31:16.341Z,12.30
2023-05-12T23:41:41.875Z,13.70
2023-05-12T23:52:07.885Z,11.20
